createdAt,value
2023-04-12T00:00:11.257Z,7.18
2023-04-12T00:02:38.786Z,4.75
2023-04-12T00:05:06.108Z,3.97
2023-04-12T00:07:32.706Z,5.53
2023-04-12T00:09:59.155Z,5.18
2023-04-12T00:12:25.650Z,5.72
2023-04-12T00:14:52.098Z,7.60
2023-04-12T00:17:19.404Z,4.43
2023-04-12T00:19:47.723Z,7.72
2023-04-12T00:22:15.472Z,5.18
2023-04-12T00:24:42.075Z,4.82
2023-04-12T00:27:08.669Z,5.35
2023-04-12T00:29:35.066Z,2.60
2023-04-12T00:32:03.446Z,1.25
2023-04-12T00:34:30.312Z,1.83
2023-04-12T00:36:56.767Z,6.57
2023-04-12T00:39:23.405Z,4.80
2023-04-12T00:41:49.992Z,2.83
2023-04-12T00:44:18.214Z,4.72
2023-04-12T00:46:47.777Z,2.42
2023-04-12T00:49:15.520Z,4.03
2023-04-12T00:51:42.387Z,1.85
2023-04-12T00:54:08.940Z,2.87
2023-04-12T00:56:36.885Z,2.97
2023-04-12T00:59:03.852Z,1.00
2023-04-12T01:01:31.931Z,3.10
2023-04-12T01:04:04.682Z,1.50
2023-04-12T01:06:39.918Z,5.17
2023-04-12T01:09:30.289Z,2.42
2023-04-12T01:12:21.376Z,3.30
2023-04-12T01:15:24.337Z,4.93
2023-04-12T01:18:05.717Z,4.43
2023-04-12T01:20:39.233Z,2.10
2023-04-12T01:23:29.681Z,9.60
2023-04-12T01:26:09.933Z,3.67
2023-04-12T01:28:41.630Z,8.70
2023-04-12T01:31:08.947Z,1.90
2023-04-12T01:33:38.457Z,3.73
2023-04-12T01:36:12.273Z,3.30
2023-04-12T01:38:41.800Z,3.25
2023-04-12T01:41:09.406Z,5.28
2023-04-12T01:43:45.841Z,4.07
2023-04-12T01:46:16.816Z,1.83
2023-04-12T01:48:50.630Z,4.38
2023-04-12T01:51:43.963Z,3.67
2023-04-12T01:54:14.246Z,2.72
2023-04-12T01:56:45.346Z,4.07
2023-04-12T01:59:14.820Z,2.57
2023-04-12T02:01:42.094Z,4.85
2023-04-12T02:04:09.698Z,2.47
2023-04-12T02:06:37.938Z,2.00
2023-04-12T02:09:06.344Z,3.58
2023-04-12T02:11:32.977Z,5.03
2023-04-12T02:13:59.627Z,4.43
2023-04-12T02:16:29.380Z,5.07
2023-04-12T02:18:57.423Z,8.10
2023-04-12T02:21:23.901Z,3.35
2023-04-12T02:23:50.691Z,3.50
2023-04-12T02:26:17.180Z,3.13
2023-04-12T02:28:44.674Z,5.85
2023-04-12T02:31:12.083Z,3.58
2023-04-12T02:33:38.592Z,2.10
2023-04-12T02:36:10.195Z,3.50
2023-04-12T02:38:36.621Z,3.83
2023-04-12T02:41:03.045Z,4.85
2023-04-12T02:43:29.914Z,5.38
2023-04-12T02:45:56.357Z,2.42
2023-04-12T02:48:22.793Z,4.33
2023-04-12T02:50:49.225Z,7.68
2023-04-12T02:53:16.562Z,5.93
2023-04-12T02:55:44.727Z,3.85
2023-04-12T02:58:11.203Z,5.50
2023-04-12T03:00:37.632Z,2.90
2023-04-12T03:03:04.295Z,2.63
2023-04-12T03:05:30.974Z,3.28
2023-04-12T03:07:57.452Z,5.57
2023-04-12T03:10:23.897Z,5.88
2023-04-12T03:12:50.574Z,2.23
2023-04-12T03:15:17.930Z,5.13
2023-04-12T03:17:44.983Z,2.92
2023-04-12T03:20:11.926Z,5.38
2023-04-12T03:22:38.356Z,4.32
2023-04-12T03:25:05.663Z,3.27
2023-04-12T03:27:32.843Z,2.38
2023-04-12T03:29:59.388Z,4.25
2023-04-12T03:32:25.922Z,2.78
2023-04-12T03:34:52.414Z,3.22
2023-04-12T03:37:19.548Z,6.23
2023-04-12T03:39:48.129Z,3.90
2023-04-12T03:42:25.801Z,4.82
2023-04-12T03:44:58.667Z,2.20
2023-04-12T03:47:25.468Z,5.72
2023-04-12T03:50:10.405Z,3.17
2023-04-12T03:52:38.094Z,3.10
2023-04-12T03:55:06.130Z,6.43
2023-04-12T03:57:32.557Z,4.57
2023-04-12T03:59:59.184Z,4.22
2023-04-12T04:02:27.013Z,1.83
2023-04-12T04:04:53.805Z,4.88
2023-04-12T04:07:21.530Z,2.22
2023-04-12T04:09:48.248Z,6.10
2023-04-12T04:12:14.648Z,3.08
2023-04-12T04:14:41.084Z,3.27
2023-04-12T04:17:07.531Z,2.97
2023-04-12T04:19:34.211Z,4.07
2023-04-12T04:22:02.001Z,3.42
2023-04-12T04:24:29.069Z,2.63
2023-04-12T04:26:55.543Z,2.73
2023-04-12T04:29:22.344Z,2.63
2023-04-12T04:31:49.315Z,3.45
2023-04-12T04:34:16.266Z,3.80
2023-04-12T04:36:43.680Z,1.98
2023-04-12T04:39:10.261Z,4.30
2023-04-12T04:41:39.577Z,5.55
2023-04-12T04:44:09.331Z,3.53
2023-04-12T04:46:39.673Z,1.50
2023-04-12T04:49:06.565Z,4.07
2023-04-12T04:51:33.009Z,1.63
2023-04-12T04:54:00.934Z,3.75
2023-04-12T04:56:27.440Z,2.55
2023-04-12T04:58:56.259Z,5.40
2023-04-12T05:01:28.609Z,3.15
2023-04-12T05:03:55.944Z,2.13
2023-04-12T05:06:23.277Z,5.10
2023-04-12T05:08:49.834Z,3.22
2023-04-12T05:11:16.377Z,2.35
2023-04-12T05:13:42.860Z,4.32
2023-04-12T05:16:09.642Z,4.70
2023-04-12T05:18:36.341Z,5.53
2023-04-12T05:21:04.091Z,2.53
2023-04-12T05:23:32.972Z,4.82
2023-04-12T05:25:59.464Z,6.50
2023-04-12T05:28:25.892Z,4.63
2023-04-12T05:30:52.477Z,3.95
2023-04-12T05:33:18.998Z,3.38
2023-04-12T05:35:45.475Z,2.00
2023-04-12T05:38:12.011Z,3.30
2023-04-12T05:40:38.728Z,2.37
2023-04-12T05:43:05.366Z,2.05
2023-04-12T05:45:31.894Z,2.28
2023-04-12T05:47:58.467Z,4.28
2023-04-12T05:50:24.962Z,4.07
2023-04-12T05:52:51.492Z,2.30
2023-04-12T05:55:18.625Z,2.28
2023-04-12T05:57:46.900Z,3.40
2023-04-12T06:00:17.075Z,2.70
2023-04-12T06:02:45.760Z,4.65
2023-04-12T06:05:13.224Z,2.27
2023-04-12T06:07:48.255Z,3.38
2023-04-12T06:10:16.975Z,4.05
2023-04-12T06:12:43.575Z,3.75
2023-04-12T06:15:11.058Z,3.20
2023-04-12T06:17:38.176Z,2.93
2023-04-12T06:20:09.352Z,2.45
2023-04-12T06:22:36.846Z,2.35
2023-04-12T06:25:04.569Z,2.13
2023-04-12T06:27:31.498Z,3.35
2023-04-12T06:29:59.193Z,1.83
2023-04-12T06:32:25.920Z,2.28
2023-04-12T06:34:52.698Z,2.03
2023-04-12T06:37:19.213Z,2.78
2023-04-12T06:39:45.778Z,2.83
2023-04-12T06:42:14.535Z,3.60
2023-04-12T06:44:41.549Z,3.67
2023-04-12T06:47:08.280Z,5.18
2023-04-12T06:49:35.040Z,2.78
2023-04-12T06:52:01.497Z,3.10
2023-04-12T06:54:27.965Z,5.07
2023-04-12T06:56:54.488Z,4.40
2023-04-12T06:59:21.165Z,3.25
2023-04-12T07:01:47.959Z,3.00
2023-04-12T07:04:14.722Z,3.95
2023-04-12T07:06:41.397Z,4.37
2023-04-12T07:09:07.916Z,4.20
2023-04-12T07:11:34.860Z,3.92
2023-04-12T07:14:01.462Z,4.80
2023-04-12T07:16:31.565Z,6.47
2023-04-12T07:18:59.503Z,5.37
2023-04-12T07:21:27.425Z,2.75
2023-04-12T07:23:54.019Z,4.47
2023-04-12T07:26:21.657Z,4.07
2023-04-12T07:28:48.388Z,3.30
2023-04-12T07:31:14.838Z,3.77
2023-04-12T07:33:43.439Z,7.45
2023-04-12T07:36:10.642Z,7.95
2023-04-12T07:38:37.229Z,8.35
2023-04-12T07:41:03.797Z,6.68
2023-04-12T07:43:30.232Z,5.73
2023-04-12T07:45:57.258Z,20.05
2023-04-12T07:48:23.884Z,10.95
2023-04-12T07:50:51.352Z,8.88
2023-04-12T07:53:23.131Z,18.25
2023-04-12T07:55:50.163Z,7.80
2023-04-12T07:58:17.365Z,6.85
2023-04-12T08:00:44.818Z,6.75
2023-04-12T08:03:13.223Z,5.95
2023-04-12T08:05:40.751Z,7.60
2023-04-12T08:08:10.074Z,6.80
2023-04-12T08:10:37.317Z,6.25
2023-04-12T08:13:05.379Z,4.63
2023-04-12T08:15:31.885Z,7.35
2023-04-12T08:17:58.417Z,7.88
2023-04-12T08:20:24.939Z,10.53
2023-04-12T08:22:52.319Z,9.82
2023-04-12T08:25:18.919Z,8.32
2023-04-12T08:27:46.013Z,8.48
2023-04-12T08:30:13.254Z,7.07
2023-04-12T08:32:39.750Z,15.07
2023-04-12T08:35:06.558Z,7.93
2023-04-12T08:37:33.670Z,7.85
2023-04-12T08:40:05.768Z,8.23
2023-04-12T08:42:33.776Z,13.23
2023-04-12T08:45:05.107Z,12.03
2023-04-12T08:47:33.670Z,11.00
2023-04-12T08:50:03.334Z,15.15
2023-04-12T08:52:34.028Z,9.43
2023-04-12T08:55:03.868Z,10.63
2023-04-12T08:57:32.686Z,10.53
2023-04-12T09:00:04.358Z,11.82
2023-04-12T09:02:31.461Z,14.57
2023-04-12T09:04:58.515Z,10.30
2023-04-12T09:07:30.525Z,17.27
2023-04-12T09:09:58.526Z,16.73
2023-04-12T09:12:27.239Z,7.88
2023-04-12T09:15:06.175Z,11.95
2023-04-12T09:17:33.842Z,17.92
2023-04-12T09:20:00.511Z,8.68
2023-04-12T09:22:37.624Z,8.67
2023-04-12T09:25:04.935Z,10.85
2023-04-12T09:27:49.289Z,18.48
2023-04-12T09:30:17.108Z,8.20
2023-04-12T09:32:44.557Z,9.95
2023-04-12T09:35:11.271Z,9.10
2023-04-12T09:37:37.938Z,15.05
2023-04-12T09:40:06.700Z,9.48
2023-04-12T09:42:35.019Z,16.88
2023-04-12T09:45:25.644Z,13.65
2023-04-12T09:47:53.627Z,14.13
2023-04-12T09:50:26.938Z,7.90
2023-04-12T09:52:54.130Z,8.85
2023-04-12T09:55:25.700Z,7.75
2023-04-12T09:57:54.006Z,13.98
2023-04-12T10:00:23.540Z,16.37
2023-04-12T10:02:52.870Z,13.82
2023-04-12T10:05:27.972Z,10.00
2023-04-12T10:07:55.563Z,7.60
2023-04-12T10:10:22.738Z,11.85
2023-04-12T10:12:50.031Z,7.93
2023-04-12T10:15:18.104Z,12.40
2023-04-12T10:17:46.405Z,7.28
2023-04-12T10:20:14.639Z,10.05
2023-04-12T10:22:42.721Z,10.07
2023-04-12T10:25:15.561Z,10.83
2023-04-12T10:27:43.638Z,8.70
2023-04-12T10:30:29.942Z,11.93
2023-04-12T10:33:02.312Z,12.82
2023-04-12T10:35:29.958Z,13.75
2023-04-12T10:38:05.986Z,9.63
2023-04-12T10:40:33.786Z,13.10
2023-04-12T10:43:22.562Z,14.65
2023-04-12T10:45:49.824Z,9.52
2023-04-12T10:48:38.789Z,14.90
2023-04-12T10:51:31.051Z,11.27
2023-04-12T10:54:16.291Z,20.77
2023-04-12T10:56:44.368Z,13.98
2023-04-12T10:59:15.163Z,16.52
2023-04-12T11:01:43.797Z,14.30
2023-04-12T11:04:22.272Z,10.27
2023-04-12T11:06:52.623Z,16.88
2023-04-12T11:09:25.350Z,19.77
2023-04-12T11:12:04.375Z,14.13
2023-04-12T11:14:39.582Z,14.38
2023-04-12T11:17:06.507Z,12.30
2023-04-12T11:22:06.296Z,9.82
2023-04-12T11:24:33.168Z,11.25
2023-04-12T11:27:00.873Z,13.60
2023-04-12T11:29:27.553Z,11.77
2023-04-12T11:31:56.022Z,11.95
2023-04-12T11:34:22.912Z,15.63
2023-04-12T11:36:53.920Z,11.95
2023-04-12T11:39:21.231Z,15.77
2023-04-12T11:41:49.222Z,12.97
2023-04-12T11:44:19.017Z,10.07
2023-04-12T11:46:46.451Z,15.57
2023-04-12T11:49:17.300Z,11.20
2023-04-12T11:51:45.482Z,11.50
2023-04-12T11:54:14.200Z,19.33
2023-04-12T11:56:41.724Z,8.63
2023-04-12T11:59:08.765Z,11.40
2023-04-12T12:01:35.658Z,12.13
2023-04-12T12:04:02.473Z,11.23
2023-04-12T12:06:31.489Z,10.57
2023-04-12T12:08:58.799Z,12.32
2023-04-12T12:11:26.664Z,6.50
2023-04-12T12:13:55.305Z,9.88
2023-04-12T12:16:30.153Z,9.57
2023-04-12T12:18:57.855Z,6.03
2023-04-12T12:21:26.255Z,9.60
2023-04-12T12:23:52.869Z,7.65
2023-04-12T12:26:25.045Z,7.03
2023-04-12T12:28:56.776Z,11.32
2023-04-12T12:31:25.356Z,12.40
2023-04-12T12:33:59.310Z,13.98
2023-04-12T12:36:33.013Z,7.95
2023-04-12T12:39:11.840Z,10.40
2023-04-12T12:41:39.835Z,5.85
2023-04-12T12:44:08.060Z,5.30
2023-04-12T12:49:04.311Z,6.25
2023-04-12T12:51:31.507Z,6.78
2023-04-12T12:53:58.221Z,4.80
2023-04-12T12:56:24.800Z,7.83
2023-04-12T12:58:51.362Z,3.63
2023-04-12T13:01:17.804Z,3.33
2023-04-12T13:03:44.431Z,5.53
2023-04-12T13:06:11.434Z,7.72
2023-04-12T13:08:38.055Z,8.17
2023-04-12T13:11:04.747Z,11.93
2023-04-12T13:13:31.299Z,7.07
2023-04-12T13:15:57.835Z,5.65
2023-04-12T13:18:24.494Z,6.70
2023-04-12T13:20:51.427Z,6.70
2023-04-12T13:23:17.902Z,7.40
2023-04-12T13:25:44.495Z,12.05
2023-04-12T13:28:12.325Z,3.78
2023-04-12T13:30:38.774Z,5.78
2023-04-12T13:33:05.717Z,4.07
2023-04-12T13:35:32.230Z,4.30
2023-04-12T13:37:58.751Z,2.28
2023-04-12T13:40:25.242Z,4.53
2023-04-12T13:42:51.677Z,3.17
2023-04-12T13:45:18.124Z,1.63
2023-04-12T13:47:44.610Z,4.28
2023-04-12T13:50:11.277Z,6.78
2023-04-12T13:52:37.744Z,2.63
2023-04-12T13:55:08.063Z,2.55
2023-04-12T13:57:35.557Z,1.77
2023-04-12T14:00:02.098Z,4.18
2023-04-12T14:02:31.241Z,2.20
2023-04-12T14:04:58.356Z,3.63
2023-04-12T14:07:24.964Z,2.70
2023-04-12T14:09:51.459Z,2.67
2023-04-12T14:12:17.936Z,2.88
2023-04-12T14:14:44.446Z,1.48
2023-04-12T14:17:11.274Z,4.85
2023-04-12T14:19:37.942Z,1.15
2023-04-12T14:22:04.761Z,2.67
2023-04-12T14:24:31.766Z,1.20
2023-04-12T14:26:59.408Z,1.67
2023-04-12T14:29:26.683Z,4.03
2023-04-12T14:31:53.218Z,15.23
2023-04-12T14:34:19.635Z,6.77
2023-04-12T14:36:46.077Z,5.93
2023-04-12T14:39:14.098Z,3.03
2023-04-12T14:41:41.474Z,2.58
2023-04-12T14:44:07.984Z,6.70
2023-04-12T14:46:34.471Z,5.40
2023-04-12T14:49:01.576Z,6.72
2023-04-12T14:51:29.439Z,3.25
2023-04-12T14:53:56.267Z,3.00
2023-04-12T14:56:29.205Z,4.40
2023-04-12T14:58:57.595Z,3.37
2023-04-12T15:01:25.451Z,1.70
2023-04-12T15:03:53.185Z,3.10
2023-04-12T15:06:22.877Z,2.88
2023-04-12T15:08:54.517Z,5.65
2023-04-12T15:11:26.552Z,2.30
2023-04-12T15:13:53.892Z,5.32
2023-04-12T15:16:20.568Z,1.33
2023-04-12T15:18:47.426Z,2.97
2023-04-12T15:21:13.984Z,2.17
2023-04-12T15:23:41.768Z,6.33
2023-04-12T15:26:12.020Z,1.80
2023-04-12T15:28:38.569Z,2.88
2023-04-12T15:31:05.608Z,5.10
2023-04-12T15:33:34.680Z,2.17
2023-04-12T15:36:02.415Z,1.77
2023-04-12T15:38:29.928Z,2.03
2023-04-12T15:40:58.950Z,1.52
2023-04-12T15:43:25.825Z,2.53
2023-04-12T15:45:54.522Z,1.80
2023-04-12T15:48:22.987Z,2.87
2023-04-12T15:50:56.698Z,2.60
2023-04-12T15:53:25.555Z,0.50
2023-04-12T15:55:55.313Z,0.95
2023-04-12T15:58:23.473Z,1.63
2023-04-12T16:00:50.294Z,1.33
2023-04-12T16:03:22.916Z,4.35
2023-04-12T16:05:54.535Z,3.35
2023-04-12T16:08:22.419Z,1.98
2023-04-12T16:10:50.397Z,3.83
2023-04-12T16:13:17.089Z,4.23
2023-04-12T16:15:43.734Z,4.00
2023-04-12T16:18:10.511Z,5.20
2023-04-12T16:20:37.452Z,9.40
2023-04-12T16:23:05.093Z,2.80
2023-04-12T16:25:32.187Z,4.40
2023-04-12T16:28:02.351Z,7.18
2023-04-12T16:30:32.441Z,3.75
2023-04-12T16:32:59.220Z,0.93
2023-04-12T16:35:25.877Z,2.67
2023-04-12T16:37:52.402Z,4.27
2023-04-12T16:40:19.063Z,8.02
2023-04-12T16:42:45.758Z,9.43
2023-04-12T16:45:14.564Z,12.82
2023-04-12T16:47:41.569Z,9.00
2023-04-12T16:50:09.211Z,7.53
2023-04-12T16:52:36.879Z,2.50
2023-04-12T16:55:04.707Z,4.90
2023-04-12T16:57:31.347Z,3.55
2023-04-12T16:59:57.990Z,3.10
2023-04-12T17:05:17.832Z,2.88
2023-04-12T17:07:49.702Z,1.83
2023-04-12T17:10:17.559Z,2.58
2023-04-12T17:12:45.356Z,4.45
2023-04-12T17:15:16.206Z,1.20
2023-04-12T17:17:50.982Z,3.78
2023-04-12T17:20:19.688Z,3.03
2023-04-12T17:22:47.375Z,1.85
2023-04-12T17:25:14.049Z,1.48
2023-04-12T17:27:41.718Z,4.10
2023-04-12T17:30:11.792Z,2.35
2023-04-12T17:32:41.484Z,3.58
2023-04-12T17:35:11.513Z,2.50
2023-04-12T17:37:38.239Z,3.28
2023-04-12T17:40:05.703Z,1.97
2023-04-12T17:42:32.331Z,2.60
2023-04-12T17:44:59.087Z,3.05
2023-04-12T17:47:25.673Z,1.65
2023-04-12T17:49:52.156Z,3.22
2023-04-12T17:52:18.715Z,1.67
2023-04-12T17:54:45.600Z,4.55
2023-04-12T17:57:12.197Z,1.45
2023-04-12T17:59:38.834Z,3.80
2023-04-12T18:02:05.573Z,4.57
2023-04-12T18:04:32.401Z,2.83
2023-04-12T18:06:58.935Z,1.83
2023-04-12T18:09:28.794Z,6.68
2023-04-12T18:11:55.290Z,4.57
2023-04-12T18:14:22.301Z,4.35
2023-04-12T18:16:48.867Z,5.97
2023-04-12T18:19:18.906Z,2.00
2023-04-12T18:21:48.675Z,3.55
2023-04-12T18:24:18.511Z,10.18
2023-04-12T18:26:45.978Z,4.57
2023-04-12T18:29:14.510Z,4.80
2023-04-12T18:31:41.353Z,4.70
2023-04-12T18:34:08.751Z,4.07
2023-04-12T18:36:39.477Z,3.45
2023-04-12T18:39:06.402Z,3.80
2023-04-12T18:41:35.173Z,5.33
2023-04-12T18:44:01.821Z,4.47
2023-04-12T18:46:29.583Z,7.70
2023-04-12T18:49:04.653Z,7.68
2023-04-12T18:51:32.963Z,4.30
2023-04-12T18:54:03.259Z,3.63
2023-04-12T18:56:29.739Z,6.18
2023-04-12T18:58:56.989Z,5.40
2023-04-12T19:01:25.214Z,4.72
2023-04-12T19:03:52.579Z,4.30
2023-04-12T19:06:19.546Z,3.93
2023-04-12T19:08:46.097Z,6.25
2023-04-12T19:11:12.670Z,7.38
2023-04-12T19:13:39.230Z,8.15
2023-04-12T19:16:08.837Z,4.47
2023-04-12T19:18:35.498Z,5.93
2023-04-12T19:21:02.820Z,5.13
2023-04-12T19:23:30.375Z,7.47
2023-04-12T19:25:59.754Z,7.07
2023-04-12T19:28:27.163Z,4.38
2023-04-12T19:30:53.742Z,9.30
2023-04-12T19:33:20.836Z,13.63
2023-04-12T19:35:47.536Z,9.65
2023-04-12T19:38:15.603Z,4.78
2023-04-12T19:40:42.586Z,6.30
2023-04-12T19:43:09.136Z,8.17
2023-04-12T19:45:35.992Z,5.68
2023-04-12T19:48:02.531Z,5.90
2023-04-12T19:50:30.940Z,9.00
2023-04-12T19:52:57.490Z,5.18
2023-04-12T19:55:24.180Z,7.57
2023-04-12T19:57:51.281Z,6.45
2023-04-12T20:00:22.837Z,6.88
2023-04-12T20:02:53.500Z,6.28
2023-04-12T20:05:21.129Z,8.52
2023-04-12T20:07:47.771Z,7.63
2023-04-12T20:10:15.365Z,8.30
2023-04-12T20:12:42.045Z,4.93
2023-04-12T20:15:12.336Z,4.78
2023-04-12T20:17:42.885Z,4.50
2023-04-12T20:20:11.017Z,7.33
2023-04-12T20:22:42.008Z,7.32
2023-04-12T20:25:10.814Z,7.40
2023-04-12T20:27:39.817Z,7.30
2023-04-12T20:30:08.723Z,9.25
2023-04-12T20:32:35.975Z,8.37
2023-04-12T20:35:04.013Z,5.53
2023-04-12T20:37:30.656Z,4.40
2023-04-12T20:39:57.136Z,6.65
2023-04-12T20:42:23.547Z,9.00
2023-04-12T20:44:50.078Z,9.60
2023-04-12T20:47:18.076Z,5.95
2023-04-12T20:49:46.267Z,6.47
2023-04-12T20:52:16.687Z,4.68
2023-04-12T20:54:45.611Z,4.05
2023-04-12T20:57:13.989Z,5.00
2023-04-12T20:59:40.491Z,4.90
2023-04-12T21:02:07.346Z,4.60
2023-04-12T21:04:36.187Z,5.55
2023-04-12T21:07:03.225Z,2.00
2023-04-12T21:09:30.073Z,2.93
2023-04-12T21:11:57.864Z,3.67
2023-04-12T21:14:24.650Z,3.90
2023-04-12T21:16:51.126Z,4.15
2023-04-12T21:19:18.488Z,3.15
2023-04-12T21:21:45.950Z,3.83
2023-04-12T21:24:13.220Z,3.15
2023-04-12T21:26:40.814Z,2.47
2023-04-12T21:29:07.250Z,1.80
2023-04-12T21:31:33.801Z,1.58
2023-04-12T21:34:02.910Z,2.63
2023-04-12T21:36:30.217Z,4.20
2023-04-12T21:38:58.986Z,2.20
2023-04-12T21:41:25.866Z,1.30
2023-04-12T21:43:52.766Z,2.17
2023-04-12T21:46:19.812Z,1.67
2023-04-12T21:48:46.445Z,3.08
2023-04-12T21:51:13.087Z,2.72
2023-04-12T21:53:39.556Z,4.65
2023-04-12T21:56:06.544Z,2.85
2023-04-12T21:58:33.427Z,2.60
2023-04-12T22:01:00.111Z,4.35
2023-04-12T22:03:27.140Z,1.45
2023-04-12T22:06:03.492Z,1.17
2023-04-12T22:08:32.764Z,3.78
2023-04-12T22:11:00.346Z,7.73
2023-04-12T22:13:27.391Z,3.50
2023-04-12T22:15:53.827Z,1.42
2023-04-12T22:18:21.460Z,3.65
2023-04-12T22:20:48.139Z,1.55
2023-04-12T22:23:17.961Z,1.30
2023-04-12T22:25:46.046Z,1.35
2023-04-12T22:28:12.609Z,2.25
2023-04-12T22:30:39.821Z,5.85
2023-04-12T22:33:08.322Z,1.23
2023-04-12T22:35:35.192Z,3.43
2023-04-12T22:38:01.776Z,0.43
2023-04-12T22:40:28.619Z,1.48
2023-04-12T22:42:56.028Z,2.90
2023-04-12T22:45:22.508Z,0.98
2023-04-12T22:47:48.992Z,2.77
2023-04-12T22:50:15.421Z,1.67
2023-04-12T22:52:42.255Z,2.55
2023-04-12T22:55:21.830Z,0.52
2023-04-12T22:57:48.318Z,3.28
2023-04-12T23:00:17.125Z,1.97
2023-04-12T23:02:46.092Z,1.17
2023-04-12T23:05:13.943Z,2.60
2023-04-12T23:07:41.407Z,3.58
2023-04-12T23:10:08.864Z,2.35
2023-04-12T23:12:36.179Z,1.73
2023-04-12T23:15:02.913Z,1.60
2023-04-12T23:17:29.516Z,1.48
2023-04-12T23:19:56.556Z,1.10
2023-04-12T23:22:56.010Z,1.35
2023-04-12T23:25:25.478Z,2.63
2023-04-12T23:27:51.936Z,12.48
2023-04-12T23:30:18.708Z,2.55
2023-04-12T23:32:46.146Z,2.08
2023-04-12T23:35:14.372Z,3.03
2023-04-12T23:37:41.603Z,1.13
2023-04-12T23:40:14.910Z,1.92
2023-04-12T23:42:43.906Z,1.95
2023-04-12T23:45:11.882Z,2.78
2023-04-12T23:47:38.374Z,2.40
2023-04-12T23:50:06.481Z,4.13
2023-04-12T23:52:33.225Z,5.18
2023-04-12T23:54:59.866Z,1.45
2023-04-12T23:57:26.415Z,1.85
2023-04-12T23:59:52.928Z,2.92
